Menu Horizontal
luftaufnahme
Willkommen auf der Webseite der privaten Wetterstation -- Taufkirchen an der Pram -- 48°24'29,52" Nord  <>  13°32'13,20" Ost

Wetterdaten - Samstag, 11.07.2020 - Taufkirchen an der Pram     336 m über NN
Wetterdaten: aktuell Samstag, 11.07.2020 16:40
Datum Zeit Temp. A. Feuchte A. Luftdruck Regen Wind Sonnenschein UV Solar Windchill Empfang
11.07.2020 16:40 15,3 °C 95 % 1021,8 hPa 0,2 l/m² 0,2 km/h 0 min 0,8 UV-I 73 W/m² 15,3 °C 99 %
11.07.2020 16:30 15,4 °C 96 % 1021,5 hPa 0,0 l/m² 0,0 km/h 0 min 0,1 UV-I 48 W/m² 15,4 °C 99 %
11.07.2020 16:20 15,3 °C 96 % 1021,4 hPa 0,0 l/m² 0,4 km/h 0 min 0,7 UV-I 66 W/m² 15,3 °C 100 %
11.07.2020 16:10 15,3 °C 96 % 1021,2 hPa 0,0 l/m² 1,6 km/h 0 min 0,9 UV-I 93 W/m² 15,3 °C 100 %
11.07.2020 16:00 15,3 °C 96 % 1021,4 hPa 0,0 l/m² 1,6 km/h 10 min 1,4 UV-I 148 W/m² 15,3 °C 100 %
11.07.2020 15:50 15,4 °C 96 % 1021,3 hPa 0,0 l/m² 2,4 km/h 10 min 2,1 UV-I 211 W/m² 15,4 °C 100 %
11.07.2020 15:40 15,3 °C 96 % 1021,5 hPa 0,0 l/m² 1,8 km/h 10 min 1,3 UV-I 134 W/m² 15,3 °C 100 %
11.07.2020 15:30 15,4 °C 96 % 1021,7 hPa 0,0 l/m² 0,2 km/h 10 min 1,1 UV-I 104 W/m² 15,4 °C 100 %
11.07.2020 15:20 15,5 °C 96 % 1021,6 hPa 0,0 l/m² 0,2 km/h 10 min 1,2 UV-I 114 W/m² 15,5 °C 100 %
11.07.2020 15:10 15,5 °C 96 % 1021,4 hPa 0,0 l/m² 0,2 km/h 10 min 1,4 UV-I 130 W/m² 15,5 °C 100 %
11.07.2020 15:00 15,3 °C 96 % 1021,3 hPa 0,2 l/m² 0,6 km/h 10 min 1,2 UV-I 107 W/m² 15,3 °C 99 %
11.07.2020 14:50 15,2 °C 96 % 1021,2 hPa 0,0 l/m² 0,5 km/h 0 min 1,1 UV-I 99 W/m² 15,2 °C 100 %
11.07.2020 14:40 15,2 °C 96 % 1021,3 hPa 0,0 l/m² 0,1 km/h 0 min 0,7 UV-I 60 W/m² 15,2 °C 100 %
11.07.2020 14:30 15,0 °C 95 % 1021,0 hPa 0,0 l/m² 1,7 km/h 0 min 0,1 UV-I 44 W/m² 15,0 °C 100 %
11.07.2020 14:20 15,2 °C 95 % 1020,9 hPa 0,4 l/m² 1,4 km/h 0 min 0,0 UV-I 33 W/m² 15,2 °C 100 %
11.07.2020 14:10 15,6 °C 95 % 1021,0 hPa 0,4 l/m² 0,1 km/h 0 min 0,0 UV-I 39 W/m² 15,6 °C 100 %
11.07.2020 14:00 15,8 °C 96 % 1020,8 hPa 0,4 l/m² 0,6 km/h 0 min 0,4 UV-I 55 W/m² 15,8 °C 100 %
11.07.2020 13:50 15,9 °C 96 % 1020,5 hPa 0,0 l/m² 0,1 km/h 0 min 0,9 UV-I 69 W/m² 15,9 °C 98 %
11.07.2020 13:40 15,9 °C 96 % 1020,3 hPa 0,0 l/m² 0,1 km/h 0 min 1,1 UV-I 85 W/m² 15,9 °C 100 %
11.07.2020 13:30 15,8 °C 96 % 1020,4 hPa 0,0 l/m² 0,3 km/h 10 min 1,5 UV-I 119 W/m² 15,8 °C 99 %
11.07.2020 13:20 15,6 °C 96 % 1020,3 hPa 0,0 l/m² 0,1 km/h 10 min 2,2 UV-I 174 W/m² 15,6 °C 100 %
11.07.2020 13:10 15,4 °C 96 % 1020,3 hPa 0,2 l/m² 0,3 km/h 10 min 1,4 UV-I 115 W/m² 15,4 °C 100 %
11.07.2020 13:00 15,3 °C 95 % 1020,2 hPa 0,0 l/m² 0,0 km/h 0 min 1,2 UV-I 91 W/m² 15,3 °C 100 %
11.07.2020 12:50 15,2 °C 95 % 1020,1 hPa 0,2 l/m² 0,0 km/h 10 min 1,8 UV-I 145 W/m² 15,2 °C 100 %
11.07.2020 12:40 15,1 °C 95 % 1020,1 hPa 0,2 l/m² 0,0 km/h 10 min 1,3 UV-I 103 W/m² 15,1 °C 100 %
11.07.2020 12:30 15,0 °C 95 % 1020,1 hPa 0,2 l/m² 0,4 km/h 0 min 1,2 UV-I 89 W/m² 15,0 °C 100 %
11.07.2020 12:20 15,1 °C 95 % 1019,9 hPa 0,4 l/m² 0,7 km/h 0 min 1,1 UV-I 83 W/m² 15,1 °C 99 %
11.07.2020 12:10 15,1 °C 95 % 1019,9 hPa 0,4 l/m² 1,9 km/h 0 min 0,8 UV-I 58 W/m² 15,1 °C 100 %
11.07.2020 12:00 15,2 °C 95 % 1019,8 hPa 0,2 l/m² 2,6 km/h 0 min 1,2 UV-I 89 W/m² 15,2 °C 99 %
11.07.2020 11:50 15,2 °C 94 % 1019,6 hPa 0,2 l/m² 4,5 km/h 10 min 1,4 UV-I 114 W/m² 15,2 °C 100 %
11.07.2020 11:40 15,8 °C 94 % 1019,5 hPa 0,4 l/m² 5,9 km/h 0 min 0,4 UV-I 54 W/m² 15,8 °C 100 %
11.07.2020 11:30 16,5 °C 96 % 1019,5 hPa 2,2 l/m² 0,5 km/h 0 min 0,0 UV-I 26 W/m² 16,5 °C 100 %
11.07.2020 11:20 16,4 °C 96 % 1019,4 hPa 1,6 l/m² 0,5 km/h 0 min 0,0 UV-I 12 W/m² 16,4 °C 100 %
11.07.2020 11:10 16,6 °C 96 % 1019,2 hPa 1,4 l/m² 0,4 km/h 0 min 0,0 UV-I 13 W/m² 16,6 °C 100 %
11.07.2020 11:00 16,7 °C 96 % 1018,9 hPa 1,4 l/m² 0,0 km/h 0 min 0,0 UV-I 22 W/m² 16,7 °C 99 %
11.07.2020 10:50 16,7 °C 96 % 1018,9 hPa 0,2 l/m² 0,0 km/h 0 min 0,1 UV-I 47 W/m² 16,7 °C 100 %
11.07.2020 10:40 16,8 °C 96 % 1018,8 hPa 0,2 l/m² 0,4 km/h 0 min 1,0 UV-I 82 W/m² 16,8 °C 91 %
11.07.2020 10:30 16,8 °C 96 % 1018,7 hPa 0,2 l/m² 0,1 km/h 0 min 0,8 UV-I 70 W/m² 16,8 °C 100 %
11.07.2020 10:20 16,8 °C 96 % 1018,7 hPa 0,2 l/m² 0,1 km/h 0 min 0,1 UV-I 49 W/m² 16,8 °C 100 %
11.07.2020 10:10 16,8 °C 96 % 1018,5 hPa 0,0 l/m² 0,0 km/h 0 min 0,0 UV-I 45 W/m² 16,8 °C 100 %
11.07.2020 10:00 16,7 °C 96 % 1018,3 hPa 0,2 l/m² 0,3 km/h 0 min 0,6 UV-I 59 W/m² 16,7 °C 100 %
11.07.2020 09:50 16,6 °C 96 % 1018,3 hPa 0,2 l/m² 0,8 km/h 0 min 0,6 UV-I 65 W/m² 16,6 °C 100 %
11.07.2020 09:40 16,6 °C 96 % 1018,5 hPa 0,4 l/m² 1,9 km/h 0 min 0,0 UV-I 48 W/m² 16,6 °C 100 %
11.07.2020 09:30 16,6 °C 96 % 1018,4 hPa 0,2 l/m² 1,4 km/h 0 min 0,0 UV-I 42 W/m² 16,6 °C 99 %
11.07.2020 09:20 16,6 °C 96 % 1018,3 hPa 0,2 l/m² 1,7 km/h 0 min 0,0 UV-I 47 W/m² 16,6 °C 100 %
11.07.2020 09:10 16,6 °C 95 % 1018,3 hPa 0,0 l/m² 1,9 km/h 0 min 0,3 UV-I 58 W/m² 16,6 °C 100 %
11.07.2020 09:00 16,7 °C 96 % 1018,3 hPa 0,2 l/m² 2,3 km/h 0 min 0,6 UV-I 63 W/m² 16,7 °C 100 %
11.07.2020 08:50 16,7 °C 96 % 1018,2 hPa 0,4 l/m² 2,2 km/h 0 min 0,7 UV-I 75 W/m² 16,7 °C 100 %
11.07.2020 08:40 16,7 °C 96 % 1017,9 hPa 0,2 l/m² 1,3 km/h 0 min 0,6 UV-I 62 W/m² 16,7 °C 100 %
11.07.2020 08:30 16,7 °C 96 % 1017,6 hPa 0,0 l/m² 1,6 km/h 0 min 0,5 UV-I 60 W/m² 16,7 °C 100 %
11.07.2020 08:20 16,7 °C 96 % 1017,5 hPa 0,2 l/m² 1,7 km/h 0 min 0,5 UV-I 63 W/m² 16,7 °C 100 %
11.07.2020 08:10 16,7 °C 95 % 1017,4 hPa 0,2 l/m² 3,6 km/h 0 min 0,3 UV-I 60 W/m² 16,7 °C 99 %
11.07.2020 08:00 16,8 °C 96 % 1017,3 hPa 0,2 l/m² 2,4 km/h 0 min 0,0 UV-I 37 W/m² 16,8 °C 99 %
11.07.2020 07:50 16,9 °C 96 % 1017,3 hPa 0,2 l/m² 1,4 km/h 0 min 0,0 UV-I 34 W/m² 16,9 °C 100 %
11.07.2020 07:40 16,9 °C 95 % 1017,2 hPa 0,2 l/m² 1,0 km/h 0 min 0,0 UV-I 37 W/m² 16,9 °C 99 %
11.07.2020 07:30 16,9 °C 95 % 1016,9 hPa 0,2 l/m² 0,2 km/h 0 min 0,0 UV-I 58 W/m² 16,9 °C 100 %
11.07.2020 07:20 17,0 °C 95 % 1016,9 hPa 0,0 l/m² 2,6 km/h 0 min 0,0 UV-I 40 W/m² 17,0 °C 91 %
11.07.2020 07:10 17,1 °C 95 % 1017,0 hPa 0,0 l/m² 1,2 km/h 0 min 0,0 UV-I 19 W/m² 17,1 °C 100 %
11.07.2020 07:00 17,0 °C 95 % 1017,0 hPa 0,2 l/m² 0,7 km/h 0 min 0,0 UV-I 22 W/m² 17,0 °C 100 %
11.07.2020 06:50 17,1 °C 95 % 1016,6 hPa 0,2 l/m² 2,0 km/h 0 min 0,0 UV-I 33 W/m² 17,1 °C 100 %
11.07.2020 06:40 17,1 °C 95 % 1016,8 hPa 0,2 l/m² 0,0 km/h 0 min 0,0 UV-I 19 W/m² 17,1 °C 99 %
11.07.2020 06:30 16,9 °C 96 % 1016,6 hPa 0,2 l/m² 0,3 km/h 0 min 0,0 UV-I 12 W/m² 16,9 °C 99 %
11.07.2020 06:20 16,8 °C 95 % 1016,6 hPa 0,2 l/m² 0,0 km/h 0 min 0,0 UV-I 5 W/m² 16,8 °C 100 %
11.07.2020 06:10 16,8 °C 95 % 1016,4 hPa 0,2 l/m² 0,0 km/h 0 min 0,0 UV-I 6 W/m² 16,8 °C 100 %
11.07.2020 06:00 16,7 °C 95 % 1016,4 hPa 0,6 l/m² 0,0 km/h 0 min 0,0 UV-I 3 W/m² 16,7 °C 100 %
11.07.2020 05:50 16,7 °C 95 % 1016,5 hPa 0,6 l/m² 0,0 km/h 0 min 0,0 UV-I 0 W/m² 16,7 °C 100 %
11.07.2020 05:40 16,6 °C 95 % 1016,5 hPa 0,0 l/m² 0,0 km/h 0 min 0,0 UV-I 0 W/m² 16,6 °C 100 %
11.07.2020 05:30 16,6 °C 94 % 1016,3 hPa 0,0 l/m² 0,0 km/h 0 min 0,0 UV-I 0 W/m² 16,6 °C 100 %
11.07.2020 05:20 16,8 °C 95 % 1016,0 hPa 0,0 l/m² 0,0 km/h 0 min 0,0 UV-I 0 W/m² 16,8 °C 100 %
11.07.2020 05:10 17,0 °C 95 % 1015,9 hPa 0,0 l/m² 0,0 km/h 0 min 0,0 UV-I 0 W/m² 17,0 °C 99 %
11.07.2020 05:00 17,3 °C 95 % 1015,7 hPa 0,0 l/m² 0,0 km/h 0 min 0,0 UV-I 0 W/m² 17,3 °C 100 %
11.07.2020 04:50 17,5 °C 95 % 1015,8 hPa 0,0 l/m² 0,0 km/h 0 min 0,0 UV-I 0 W/m² 17,5 °C 100 %
11.07.2020 04:40 17,6 °C 95 % 1015,8 hPa 0,0 l/m² 0,0 km/h 0 min 0,0 UV-I 0 W/m² 17,6 °C 100 %
11.07.2020 04:30 17,6 °C 95 % 1015,6 hPa 0,0 l/m² 0,0 km/h 0 min 0,0 UV-I 0 W/m² 17,6 °C 100 %
11.07.2020 04:20 17,7 °C 95 % 1015,6 hPa 0,0 l/m² 0,0 km/h 0 min 0,0 UV-I 0 W/m² 17,7 °C 100 %
11.07.2020 04:10 17,8 °C 95 % 1015,6 hPa 0,0 l/m² 0,0 km/h 0 min 0,0 UV-I 0 W/m² 17,8 °C 100 %
11.07.2020 04:00 17,7 °C 95 % 1015,6 hPa 0,0 l/m² 0,0 km/h 0 min 0,0 UV-I 0 W/m² 17,7 °C 100 %
11.07.2020 03:50 17,8 °C 95 % 1015,4 hPa 0,0 l/m² 0,0 km/h 0 min 0,0 UV-I 0 W/m² 17,8 °C 100 %
11.07.2020 03:40 17,6 °C 95 % 1015,3 hPa 0,0 l/m² 0,0 km/h 0 min 0,0 UV-I 0 W/m² 17,6 °C 99 %
11.07.2020 03:30 17,7 °C 95 % 1015,3 hPa 0,0 l/m² 0,0 km/h 0 min 0,0 UV-I 0 W/m² 17,7 °C 100 %
11.07.2020 03:20 17,9 °C 95 % 1015,4 hPa 0,0 l/m² 0,4 km/h 0 min 0,0 UV-I 0 W/m² 17,9 °C 100 %
11.07.2020 03:10 18,2 °C 96 % 1015,4 hPa 0,2 l/m² 0,5 km/h 0 min 0,0 UV-I 0 W/m² 18,2 °C 100 %
11.07.2020 03:00 18,3 °C 96 % 1015,6 hPa 0,2 l/m² 2,4 km/h 0 min 0,0 UV-I 0 W/m² 18,3 °C 100 %
11.07.2020 02:50 18,4 °C 96 % 1015,6 hPa 0,0 l/m² 3,0 km/h 0 min 0,0 UV-I 0 W/m² 18,4 °C 100 %
11.07.2020 02:40 18,6 °C 96 % 1015,7 hPa 0,0 l/m² 0,9 km/h 0 min 0,0 UV-I 0 W/m² 18,6 °C 100 %
11.07.2020 02:30 18,6 °C 96 % 1015,8 hPa 0,2 l/m² 1,1 km/h 0 min 0,0 UV-I 0 W/m² 18,6 °C 99 %
11.07.2020 02:20 18,7 °C 96 % 1015,9 hPa 0,0 l/m² 0,5 km/h 0 min 0,0 UV-I 0 W/m² 18,7 °C 100 %
11.07.2020 02:10 18,7 °C 96 % 1015,9 hPa 0,2 l/m² 0,0 km/h 0 min 0,0 UV-I 0 W/m² 18,7 °C 99 %
11.07.2020 02:00 18,7 °C 96 % 1015,9 hPa 0,0 l/m² 0,1 km/h 0 min 0,0 UV-I 0 W/m² 18,7 °C 99 %
11.07.2020 01:50 18,8 °C 96 % 1016,0 hPa 0,0 l/m² 0,0 km/h 0 min 0,0 UV-I 0 W/m² 18,8 °C 100 %
11.07.2020 01:40 18,8 °C 96 % 1016,1 hPa 0,0 l/m² 0,0 km/h 0 min 0,0 UV-I 0 W/m² 18,8 °C 100 %
11.07.2020 01:30 18,8 °C 96 % 1016,3 hPa 0,0 l/m² 0,0 km/h 0 min 0,0 UV-I 0 W/m² 18,8 °C 100 %
11.07.2020 01:20 18,7 °C 96 % 1016,2 hPa 0,0 l/m² 0,0 km/h 0 min 0,0 UV-I 0 W/m² 18,7 °C 100 %
11.07.2020 01:10 18,8 °C 96 % 1016,1 hPa 0,0 l/m² 0,0 km/h 0 min 0,0 UV-I 0 W/m² 18,8 °C 100 %
11.07.2020 01:00 18,8 °C 96 % 1015,9 hPa 0,0 l/m² 0,0 km/h 0 min 0,0 UV-I 0 W/m² 18,8 °C 100 %
11.07.2020 00:50 18,7 °C 96 % 1015,9 hPa 0,0 l/m² 0,0 km/h 0 min 0,0 UV-I 0 W/m² 18,7 °C 100 %
11.07.2020 00:40 18,7 °C 96 % 1016,0 hPa 0,0 l/m² 0,0 km/h 0 min 0,0 UV-I 0 W/m² 18,7 °C 99 %
11.07.2020 00:30 18,7 °C 95 % 1015,9 hPa 0,0 l/m² 0,0 km/h 0 min 0,0 UV-I 0 W/m² 18,7 °C 100 %
11.07.2020 00:20 18,8 °C 95 % 1015,8 hPa 0,0 l/m² 0,0 km/h 0 min 0,0 UV-I 0 W/m² 18,8 °C 100 %
11.07.2020 00:10 18,8 °C 95 % 1015,9 hPa 0,0 l/m² 0,0 km/h 0 min 0,0 UV-I 0 W/m² 18,8 °C 100 %
11.07.2020 00:00 18,9 °C 95 % 1015,9 hPa 0,0 l/m² 0,0 km/h 0 min 0,0 UV-I 0 W/m² 18,9 °C 100 %
10.07.2020 23:50 19,0 °C 95 % 1015,6 hPa 0,0 l/m² 0,0 km/h 0 min 0,0 UV-I 0 W/m² 19,0 °C 100 %
10.07.2020 23:40 19,1 °C 95 % 1015,6 hPa 0,2 l/m² 0,0 km/h 0 min 0,0 UV-I 0 W/m² 19,1 °C 91 %
10.07.2020 23:30 18,9 °C 95 % 1015,8 hPa 0,0 l/m² 0,0 km/h 0 min 0,0 UV-I 0 W/m² 18,9 °C 100 %
10.07.2020 23:20 18,8 °C 95 % 1015,6 hPa 0,2 l/m² 0,0 km/h 0 min 0,0 UV-I 0 W/m² 18,8 °C 99 %
10.07.2020 23:10 18,9 °C 95 % 1015,2 hPa 0,4 l/m² 0,0 km/h 0 min 0,0 UV-I 0 W/m² 18,9 °C 99 %
10.07.2020 23:00 18,9 °C 95 % 1015,5 hPa 0,2 l/m² 0,0 km/h 0 min 0,0 UV-I 0 W/m² 18,9 °C 100 %
10.07.2020 22:50 18,9 °C 95 % 1015,7 hPa 0,2 l/m² 0,0 km/h 0 min 0,0 UV-I 0 W/m² 18,9 °C 99 %
10.07.2020 22:40 18,9 °C 94 % 1015,7 hPa 0,0 l/m² 0,0 km/h 0 min 0,0 UV-I 0 W/m² 18,9 °C 100 %
10.07.2020 22:30 18,9 °C 94 % 1015,7 hPa 0,0 l/m² 0,0 km/h 0 min 0,0 UV-I 0 W/m² 18,9 °C 100 %
10.07.2020 22:20 18,9 °C 94 % 1015,3 hPa 0,0 l/m² 0,0 km/h 0 min 0,0 UV-I 0 W/m² 18,9 °C 100 %
10.07.2020 22:10 19,1 °C 94 % 1015,4 hPa 0,0 l/m² 0,0 km/h 0 min 0,0 UV-I 0 W/m² 19,1 °C 100 %
10.07.2020 22:00 19,2 °C 94 % 1015,7 hPa 0,2 l/m² 0,0 km/h 0 min 0,0 UV-I 0 W/m² 19,2 °C 100 %
10.07.2020 21:50 19,1 °C 93 % 1015,4 hPa 2,0 l/m² 0,0 km/h 0 min 0,0 UV-I 0 W/m² 19,1 °C 100 %
10.07.2020 21:40 19,2 °C 93 % 1015,2 hPa 0,4 l/m² 0,3 km/h 0 min 0,0 UV-I 0 W/m² 19,2 °C 100 %
10.07.2020 21:30 19,2 °C 93 % 1014,7 hPa 0,4 l/m² 0,0 km/h 0 min 0,0 UV-I 0 W/m² 19,2 °C 100 %
10.07.2020 21:20 19,0 °C 93 % 1014,7 hPa 0,6 l/m² 0,0 km/h 0 min 0,0 UV-I 0 W/m² 19,0 °C 99 %
10.07.2020 21:10 18,9 °C 92 % 1014,5 hPa 0,6 l/m² 0,3 km/h 0 min 0,0 UV-I 0 W/m² 18,9 °C 99 %
10.07.2020 21:00 19,1 °C 91 % 1014,4 hPa 2,4 l/m² 1,5 km/h 0 min 0,0 UV-I 0 W/m² 19,1 °C 100 %
10.07.2020 20:50 19,2 °C 90 % 1014,9 hPa 0,8 l/m² 0,2 km/h 0 min 0,0 UV-I 0 W/m² 19,2 °C 100 %
10.07.2020 20:40 19,3 °C 89 % 1014,6 hPa 0,8 l/m² 0,8 km/h 0 min 0,0 UV-I 0 W/m² 19,3 °C 100 %
10.07.2020 20:30 19,5 °C 88 % 1014,6 hPa 3,6 l/m² 3,3 km/h 0 min 0,0 UV-I 0 W/m² 19,5 °C 100 %
10.07.2020 20:20 20,2 °C 86 % 1014,4 hPa 10,0 l/m² 12,1 km/h 0 min 0,0 UV-I 0 W/m² 18,2 °C 100 %
10.07.2020 20:10 22,1 °C 79 % 1013,4 hPa 1,2 l/m² 10,1 km/h 0 min 0,0 UV-I 0 W/m² 20,9 °C 100 %
10.07.2020 20:00 24,8 °C 68 % 1012,0 hPa 0,0 l/m² 14,1 km/h 0 min 0,0 UV-I 0 W/m² 23,2 °C 100 %
10.07.2020 19:50 27,7 °C 54 % 1011,2 hPa 0,0 l/m² 6,6 km/h 0 min 0,0 UV-I 0 W/m² 27,7 °C 100 %
10.07.2020 19:40 28,2 °C 50 % 1009,4 hPa 0,0 l/m² 7,0 km/h 0 min 0,0 UV-I 0 W/m² 28,1 °C 99 %
10.07.2020 19:30 28,6 °C 49 % 1009,4 hPa 0,0 l/m² 6,6 km/h 0 min 0,0 UV-I 3 W/m² 28,6 °C 100 %
10.07.2020 19:20 29,0 °C 45 % 1009,1 hPa 0,0 l/m² 5,5 km/h 0 min 0,0 UV-I 12 W/m² 29,0 °C 100 %
10.07.2020 19:10 29,4 °C 45 % 1009,3 hPa 0,0 l/m² 3,1 km/h 0 min 0,0 UV-I 30 W/m² 29,4 °C 100 %
10.07.2020 19:00 29,8 °C 45 % 1009,1 hPa 0,0 l/m² 1,4 km/h 0 min 0,3 UV-I 57 W/m² 29,8 °C 100 %
10.07.2020 18:50 30,3 °C 45 % 1008,9 hPa 0,0 l/m² 1,7 km/h 0 min 0,6 UV-I 79 W/m² 30,3 °C 100 %
10.07.2020 18:40 31,0 °C 43 % 1008,8 hPa 0,0 l/m² 2,9 km/h 10 min 0,8 UV-I 138 W/m² 31,0 °C 100 %
10.07.2020 18:30 31,8 °C 43 % 1009,1 hPa 0,0 l/m² 1,7 km/h 10 min 0,8 UV-I 147 W/m² 31,8 °C 100 %
10.07.2020 18:20 32,2 °C 42 % 1009,1 hPa 0,0 l/m² 1,2 km/h 10 min 0,9 UV-I 106 W/m² 32,2 °C 99 %
10.07.2020 18:10 33,2 °C 39 % 1008,9 hPa 0,0 l/m² 0,4 km/h 10 min 1,3 UV-I 395 W/m² 33,2 °C 100 %
10.07.2020 18:00 33,3 °C 38 % 1008,8 hPa 0,0 l/m² 2,4 km/h 10 min 1,6 UV-I 419 W/m² 33,3 °C 100 %
10.07.2020 17:50 33,8 °C 37 % 1008,8 hPa 0,0 l/m² 1,7 km/h 10 min 1,8 UV-I 453 W/m² 33,8 °C 99 %
10.07.2020 17:40 33,8 °C 36 % 1008,9 hPa 0,0 l/m² 0,5 km/h 10 min 2,2 UV-I 505 W/m² 33,8 °C 100 %
10.07.2020 17:30 33,3 °C 39 % 1009,0 hPa 0,0 l/m² 0,2 km/h 10 min 2,3 UV-I 507 W/m² 33,3 °C 100 %
10.07.2020 17:20 33,2 °C 38 % 1009,0 hPa 0,0 l/m² 1,4 km/h 10 min 2,5 UV-I 529 W/m² 33,2 °C 100 %
10.07.2020 17:10 33,3 °C 38 % 1009,0 hPa 0,0 l/m² 0,8 km/h 10 min 2,1 UV-I 221 W/m² 33,3 °C 100 %
10.07.2020 17:00 33,8 °C 37 % 1009,2 hPa 0,0 l/m² 0,4 km/h 10 min 2,8 UV-I 474 W/m² 33,8 °C 100 %
_ Min-Zeit 12:30 17:40 18:40 - 16:30 - - - 14:30 07:20
Minimum _ 14,9 °C 36 % 1008,8 hPa - 0,0 km/h - - - 15,0 °C 91 %
_ Max-Zeit 17:00 16:30 16:40 20:20 20:00 16:00 17:00 17:20 17:50 16:20
Maximum _ 34,0 °C 96 % 1021,8 hPa 10,0 l/m² 14,1 km/h
W-SW
10 min 2,8 UV-I 529 W/m² 33,8 °C 100 %
Durchschnitt _ 20,1 °C 84 % 1015,9 hPa #42,0 l/m² 1,1 km/h #2:10 h 0,9 UV-I 43 W/m² 20,1 °C 100 %